createdAt,value
2023-02-22T00:01:35.846Z,99871.50
2023-02-22T00:04:05.753Z,99832.59
2023-02-22T00:06:33.392Z,99882.53
2023-02-22T00:09:02.441Z,99833.38
2023-02-22T00:11:31.661Z,99875.22
2023-02-22T00:13:58.555Z,99861.78
2023-02-22T00:16:26.614Z,99882.72
2023-02-22T00:18:54.140Z,99892.84
2023-02-22T00:21:21.078Z,99866.56
2023-02-22T00:23:48.676Z,99909.78
2023-02-22T00:26:18.565Z,99900.09
2023-02-22T00:28:51.506Z,99852.16
2023-02-22T00:31:19.273Z,99869.47
2023-02-22T00:33:46.780Z,99892.72
2023-02-22T00:36:14.315Z,99865.56
2023-02-22T00:38:42.110Z,99846.00
2023-02-22T00:41:09.684Z,99841.34
2023-02-22T00:43:36.754Z,99910.41
2023-02-22T00:46:03.698Z,99904.13
2023-02-22T00:48:30.435Z,99899.47
2023-02-22T00:50:57.225Z,99861.69
2023-02-22T00:53:25.603Z,99880.38
2023-02-22T00:55:53.065Z,99904.81
2023-02-22T00:58:20.326Z,99884.47
2023-02-22T01:00:47.641Z,99847.41
2023-02-22T01:03:18.773Z,99897.59
2023-02-22T01:05:46.236Z,99825.19
2023-02-22T01:08:15.675Z,99881.22
2023-02-22T01:10:43.087Z,99893.84
2023-02-22T01:13:12.412Z,99900.03
2023-02-22T01:15:45.023Z,99821.13
2023-02-22T01:18:13.013Z,99903.91
2023-02-22T01:20:40.116Z,99847.47
2023-02-22T01:23:08.201Z,99846.59
2023-02-22T01:25:35.838Z,99840.56
2023-02-22T01:28:04.141Z,99900.97
2023-02-22T01:30:36.426Z,99892.06
2023-02-22T01:33:06.034Z,99883.34
2023-02-22T01:35:40.925Z,99865.47
2023-02-22T01:38:08.743Z,99861.94
2023-02-22T01:40:39.024Z,99868.78
2023-02-22T01:43:20.262Z,99878.06
2023-02-22T01:45:50.263Z,99899.16
2023-02-22T01:48:29.780Z,99892.72
2023-02-22T01:51:01.437Z,99822.22
2023-02-22T01:53:45.671Z,99824.03
2023-02-22T01:56:13.744Z,99834.91
2023-02-22T01:58:45.192Z,99902.16
2023-02-22T02:01:12.089Z,99830.69
2023-02-22T02:03:41.233Z,99878.44
2023-02-22T02:06:13.011Z,99824.78
2023-02-22T02:08:51.843Z,99893.66
2023-02-22T02:11:22.303Z,99868.28
2023-02-22T02:13:55.255Z,99894.19
2023-02-22T02:16:26.404Z,99864.34
2023-02-22T02:18:54.281Z,99833.97
2023-02-22T02:21:26.965Z,99883.00
2023-02-22T02:24:05.721Z,99877.78
2023-02-22T02:26:54.229Z,99874.94
2023-02-22T02:29:35.622Z,99869.78
2023-02-22T02:32:30.348Z,99836.66
2023-02-22T02:35:21.728Z,99863.78
2023-02-22T02:37:57.651Z,99870.97
2023-02-22T02:40:27.232Z,99869.25
2023-02-22T02:43:03.174Z,99858.75
2023-02-22T02:45:38.815Z,99816.59
2023-02-22T02:48:10.020Z,99864.63
2023-02-22T02:50:43.462Z,99808.78
2023-02-22T02:53:11.360Z,99828.66
2023-02-22T02:55:38.490Z,99870.63
2023-02-22T02:58:07.423Z,99819.84
2023-02-22T03:00:39.425Z,99883.19
2023-02-22T03:03:30.964Z,99884.06
2023-02-22T03:06:06.596Z,99888.94
2023-02-22T03:08:53.790Z,99832.47
2023-02-22T03:11:28.747Z,99811.31
2023-02-22T03:14:08.213Z,99860.94
2023-02-22T03:16:55.913Z,99826.28
2023-02-22T03:19:37.297Z,99779.94
2023-02-22T03:22:26.653Z,99840.59
2023-02-22T03:25:08.365Z,99832.94
2023-02-22T03:27:43.679Z,99843.78
2023-02-22T03:30:28.003Z,99845.88
2023-02-22T03:33:02.185Z,99850.88
2023-02-22T03:35:35.464Z,99838.78
2023-02-22T03:38:04.206Z,99918.25
2023-02-22T03:40:39.575Z,99889.75
2023-02-22T03:43:31.595Z,99921.00
2023-02-22T03:45:59.949Z,99895.50
2023-02-22T03:48:36.313Z,99935.22
2023-02-22T03:51:04.587Z,99884.56
2023-02-22T03:53:34.553Z,99876.75
2023-02-22T03:56:03.870Z,99863.44
2023-02-22T03:58:32.501Z,99892.09
2023-02-22T04:00:59.427Z,99886.09
2023-02-22T04:03:26.113Z,99913.38
2023-02-22T04:05:53.546Z,99910.41
2023-02-22T04:08:20.395Z,99914.56
2023-02-22T04:10:47.176Z,99972.84
2023-02-22T04:13:14.782Z,99929.69
2023-02-22T04:15:41.614Z,99930.78
2023-02-22T04:18:08.277Z,99936.91
2023-02-22T04:20:35.044Z,99908.97
2023-02-22T04:23:01.881Z,99969.25
2023-02-22T04:25:28.599Z,99963.78
2023-02-22T04:27:55.294Z,99890.47
2023-02-22T04:30:22.316Z,99941.66
2023-02-22T04:32:49.641Z,99970.56
2023-02-22T04:35:16.406Z,99949.53
2023-02-22T04:37:43.152Z,99967.31
2023-02-22T04:40:11.640Z,99961.97
2023-02-22T04:42:39.169Z,99924.94
2023-02-22T04:45:08.166Z,99942.03
2023-02-22T04:47:36.036Z,99978.16
2023-02-22T04:50:03.750Z,99945.19
2023-02-22T04:52:30.421Z,99966.06
2023-02-22T04:54:57.153Z,99928.63
2023-02-22T04:57:23.879Z,99954.09
2023-02-22T04:59:51.419Z,99980.50
2023-02-22T05:02:18.909Z,99976.75
2023-02-22T05:04:45.773Z,99945.19
2023-02-22T05:07:12.533Z,99925.72
2023-02-22T05:09:39.196Z,99933.44
2023-02-22T05:12:06.150Z,99936.66
2023-02-22T05:14:33.051Z,99970.31
2023-02-22T05:17:01.187Z,99997.97
2023-02-22T05:19:27.980Z,99976.38
2023-02-22T05:21:56.533Z,99921.19
2023-02-22T05:24:23.451Z,99983.19
2023-02-22T05:26:51.390Z,99978.53
2023-02-22T05:29:18.290Z,99971.34
2023-02-22T05:31:45.081Z,99939.97
2023-02-22T05:34:12.230Z,99997.69
2023-02-22T05:36:38.966Z,99991.44
2023-02-22T05:39:05.819Z,100011.94
2023-02-22T05:41:32.646Z,99990.00
2023-02-22T05:43:59.336Z,99995.47
2023-02-22T05:46:26.058Z,100022.28
2023-02-22T05:48:52.700Z,99963.94
2023-02-22T05:51:19.822Z,100006.66
2023-02-22T05:53:46.534Z,100005.66
2023-02-22T05:56:21.831Z,100029.72
2023-02-22T05:58:48.783Z,100007.31
2023-02-22T06:01:15.789Z,99990.56
2023-02-22T06:03:42.531Z,99964.44
2023-02-22T06:06:10.496Z,99974.66
2023-02-22T06:08:37.461Z,99993.63
2023-02-22T06:11:04.256Z,100001.41
2023-02-22T06:13:30.942Z,99988.91
2023-02-22T06:15:58.144Z,100010.13
2023-02-22T06:18:26.824Z,99977.25
2023-02-22T06:20:53.576Z,100011.13
2023-02-22T06:23:20.283Z,100054.94
2023-02-22T06:25:47.014Z,100052.69
2023-02-22T06:28:14.444Z,100029.41
2023-02-22T06:30:43.139Z,100025.94
2023-02-22T06:33:10.803Z,100062.13
2023-02-22T06:35:37.579Z,100034.00
2023-02-22T06:38:04.937Z,100080.72
2023-02-22T06:40:31.634Z,100059.19
2023-02-22T06:42:59.943Z,100090.81
2023-02-22T06:45:26.871Z,100065.91
2023-02-22T06:47:53.624Z,100030.97
2023-02-22T06:50:26.610Z,100086.22
2023-02-22T06:52:53.342Z,100027.66
2023-02-22T06:55:28.468Z,100082.75
2023-02-22T06:57:55.469Z,100049.41
2023-02-22T07:00:25.238Z,100067.41
2023-02-22T07:02:53.097Z,100081.94
2023-02-22T07:05:21.936Z,100101.81
2023-02-22T07:07:50.092Z,100065.16
2023-02-22T07:10:24.123Z,100048.91
2023-02-22T07:12:52.621Z,100093.84
2023-02-22T07:15:23.860Z,100093.16
2023-02-22T07:17:52.192Z,100056.81
2023-02-22T07:20:20.903Z,100090.00
2023-02-22T07:22:48.866Z,100091.91
2023-02-22T07:25:15.646Z,100065.81
2023-02-22T07:27:42.739Z,100086.34
2023-02-22T07:30:34.655Z,100129.50
2023-02-22T07:33:03.142Z,100093.69
2023-02-22T07:35:32.488Z,100061.50
2023-02-22T07:37:59.382Z,100128.16
2023-02-22T07:40:27.242Z,100071.13
2023-02-22T07:42:58.046Z,100083.09
2023-02-22T07:45:27.233Z,100068.19
2023-02-22T07:47:54.497Z,100089.91
2023-02-22T07:50:22.963Z,100148.03
2023-02-22T07:52:51.973Z,100114.31
2023-02-22T07:55:20.970Z,100159.72
2023-02-22T07:57:49.385Z,100143.63
2023-02-22T08:00:21.939Z,100176.91
2023-02-22T08:02:48.617Z,100108.38
2023-02-22T08:05:15.556Z,100140.47
2023-02-22T08:07:43.331Z,100130.84
2023-02-22T08:10:11.458Z,100181.91
2023-02-22T08:12:38.633Z,100132.72
2023-02-22T08:15:08.129Z,100193.78
2023-02-22T08:17:34.900Z,100164.44
2023-02-22T08:20:01.856Z,100179.91
2023-02-22T08:22:29.225Z,100193.72
2023-02-22T08:24:55.946Z,100151.44
2023-02-22T08:27:30.268Z,100190.06
2023-02-22T08:29:57.627Z,100201.66
2023-02-22T08:32:24.649Z,100225.50
2023-02-22T08:34:52.145Z,100194.50
2023-02-22T08:37:19.504Z,100239.78
2023-02-22T08:39:46.208Z,100212.69
2023-02-22T08:42:13.041Z,100190.56
2023-02-22T08:44:40.380Z,100238.94
2023-02-22T08:47:07.651Z,100201.84
2023-02-22T08:49:34.478Z,100232.66
2023-02-22T08:52:01.348Z,100202.63
2023-02-22T08:54:28.269Z,100217.34
2023-02-22T08:56:55.016Z,100223.19
2023-02-22T08:59:21.702Z,100223.19
2023-02-22T09:01:48.536Z,100213.13
2023-02-22T09:04:15.234Z,100215.06
2023-02-22T09:06:43.273Z,100244.84
2023-02-22T09:09:10.256Z,100259.34
2023-02-22T09:11:36.928Z,100217.59
2023-02-22T09:14:03.610Z,100190.84
2023-02-22T09:16:31.460Z,100217.34
2023-02-22T09:18:58.176Z,100226.97
2023-02-22T09:21:25.055Z,100197.50
2023-02-22T09:23:54.781Z,100228.25
2023-02-22T09:26:23.730Z,100194.91
2023-02-22T09:28:50.878Z,100262.88
2023-02-22T09:31:18.041Z,100238.94
2023-02-22T09:33:47.364Z,100239.00
2023-02-22T09:36:14.302Z,100259.09
2023-02-22T09:38:41.205Z,100233.00
2023-02-22T09:41:14.201Z,100243.72
2023-02-22T09:43:49.954Z,100296.44
2023-02-22T09:46:26.849Z,100296.00
2023-02-22T09:48:58.094Z,100302.50
2023-02-22T09:51:28.989Z,100294.81
2023-02-22T09:54:00.595Z,100281.97
2023-02-22T09:56:30.130Z,100248.53
2023-02-22T09:59:01.931Z,100263.69
2023-02-22T10:01:33.208Z,100231.06
2023-02-22T10:04:31.108Z,100298.25
2023-02-22T10:07:31.090Z,100308.50
2023-02-22T10:10:06.405Z,100252.09
2023-02-22T10:12:59.255Z,100274.78
2023-02-22T10:16:00.318Z,100300.41
2023-02-22T10:18:39.138Z,100315.41
2023-02-22T10:21:11.808Z,100316.69
2023-02-22T10:23:46.804Z,100286.09
2023-02-22T10:26:27.102Z,100286.75
2023-02-22T10:28:59.342Z,100325.06
2023-02-22T10:31:33.895Z,100288.84
2023-02-22T10:34:03.381Z,100323.94
2023-02-22T10:36:30.222Z,100260.47
2023-02-22T10:39:02.826Z,100241.03
2023-02-22T10:41:36.105Z,100328.59
2023-02-22T10:44:03.998Z,100319.66
2023-02-22T10:46:33.299Z,100320.34
2023-02-22T10:49:08.716Z,100286.81
2023-02-22T10:51:35.472Z,100318.84
2023-02-22T10:54:14.384Z,100321.69
2023-02-22T10:56:53.978Z,100258.66
2023-02-22T10:59:37.250Z,100325.31
2023-02-22T11:02:35.290Z,100329.72
2023-02-22T11:05:04.778Z,100331.44
2023-02-22T11:07:35.098Z,100328.91
2023-02-22T11:10:10.782Z,100326.06
2023-02-22T11:12:40.160Z,100336.59
2023-02-22T11:15:29.618Z,100342.41
2023-02-22T11:17:57.865Z,100303.63
2023-02-22T11:20:27.839Z,100333.84
2023-02-22T11:23:01.260Z,100349.41
2023-02-22T11:25:33.306Z,100287.88
2023-02-22T11:28:31.317Z,100353.41
2023-02-22T11:31:08.934Z,100363.72
2023-02-22T11:33:37.974Z,100308.91
2023-02-22T11:36:08.940Z,100325.44
2023-02-22T11:38:53.024Z,100352.91
2023-02-22T11:41:26.395Z,100321.69
2023-02-22T11:43:54.455Z,100343.28
2023-02-22T11:46:29.202Z,100379.88
2023-02-22T11:49:11.637Z,100304.66
2023-02-22T11:51:54.133Z,100354.38
2023-02-22T11:54:29.143Z,100338.16
2023-02-22T11:57:16.152Z,100315.22
2023-02-22T12:00:16.711Z,100326.69
2023-02-22T12:03:12.160Z,100340.22
2023-02-22T12:06:08.330Z,100391.47
2023-02-22T12:09:02.670Z,100392.59
2023-02-22T12:11:35.234Z,100385.19
2023-02-22T12:14:08.761Z,100347.69
2023-02-22T12:17:19.267Z,100358.88
2023-02-22T12:19:56.305Z,100400.06
2023-02-22T12:22:28.907Z,100395.47
2023-02-22T12:25:10.369Z,100388.81
2023-02-22T12:27:40.804Z,100357.22
2023-02-22T12:30:16.432Z,100352.94
2023-02-22T12:32:48.854Z,100357.94
2023-02-22T12:35:21.941Z,100354.38
2023-02-22T12:38:01.888Z,100414.00
2023-02-22T12:40:54.584Z,100383.84
2023-02-22T12:43:28.487Z,100380.28
2023-02-22T12:46:00.479Z,100356.69
2023-02-22T12:48:35.503Z,100434.31
2023-02-22T12:51:16.144Z,100408.25
2023-02-22T12:53:52.745Z,100397.88
2023-02-22T12:56:28.641Z,100405.56
2023-02-22T12:59:08.256Z,100421.44
2023-02-22T13:01:40.457Z,100433.28
2023-02-22T13:04:20.227Z,100400.63
2023-02-22T13:07:00.758Z,100454.56
2023-02-22T13:09:36.562Z,100461.88
2023-02-22T13:12:21.554Z,100465.38
2023-02-22T13:15:09.564Z,100428.53
2023-02-22T13:18:06.658Z,100473.00
2023-02-22T13:20:47.811Z,100473.19
2023-02-22T13:23:19.307Z,100473.38
2023-02-22T13:26:10.228Z,100467.16
2023-02-22T13:28:43.535Z,100448.13
2023-02-22T13:31:31.634Z,100486.16
2023-02-22T13:34:22.019Z,100465.59
2023-02-22T13:36:59.725Z,100493.41
2023-02-22T13:39:47.950Z,100500.72
2023-02-22T13:42:38.692Z,100507.91
2023-02-22T13:45:05.353Z,100506.06
2023-02-22T13:47:50.284Z,100488.22
2023-02-22T13:50:44.740Z,100514.84
2023-02-22T13:53:35.099Z,100482.16
2023-02-22T13:56:02.358Z,100475.78
2023-02-22T13:58:29.315Z,100467.66
2023-02-22T14:00:58.486Z,100486.75
2023-02-22T14:03:36.100Z,100520.53
2023-02-22T14:06:05.326Z,100497.84
2023-02-22T14:08:32.044Z,100532.00
2023-02-22T14:10:59.703Z,100497.00
2023-02-22T14:13:28.630Z,100516.50
2023-02-22T14:15:59.997Z,100527.97
2023-02-22T14:18:36.465Z,100514.00
2023-02-22T14:21:16.717Z,100534.44
2023-02-22T14:23:51.720Z,100523.72
2023-02-22T14:26:40.485Z,100538.88
2023-02-22T14:29:08.068Z,100536.22
2023-02-22T14:31:56.559Z,100494.69
2023-02-22T14:34:40.884Z,100557.41
2023-02-22T14:37:13.077Z,100520.38
2023-02-22T14:40:29.563Z,100541.44
2023-02-22T14:43:10.957Z,100498.53
2023-02-22T14:45:45.945Z,100522.75
2023-02-22T14:48:25.085Z,100561.81
2023-02-22T14:51:08.814Z,100532.63
2023-02-22T14:54:00.411Z,100541.25
2023-02-22T14:56:36.554Z,100581.34
2023-02-22T14:59:12.866Z,100585.44
2023-02-22T15:01:50.872Z,100560.69
2023-02-22T15:04:26.630Z,100556.69
2023-02-22T15:06:55.713Z,100590.78
2023-02-22T15:09:30.607Z,100595.25
2023-02-22T15:12:04.936Z,100605.81
2023-02-22T15:14:37.634Z,100613.38
2023-02-22T15:17:20.148Z,100590.84
2023-02-22T15:19:51.216Z,100615.50
2023-02-22T15:22:35.708Z,100573.78
2023-02-22T15:25:08.680Z,100603.28
2023-02-22T15:27:39.962Z,100572.56
2023-02-22T15:30:17.157Z,100596.44
2023-02-22T15:33:01.286Z,100621.16
2023-02-22T15:35:32.947Z,100644.28
2023-02-22T15:38:02.316Z,100645.97
2023-02-22T15:40:35.151Z,100608.09
2023-02-22T15:43:08.599Z,100641.00
2023-02-22T15:45:38.311Z,100624.22
2023-02-22T15:48:05.117Z,100680.75
2023-02-22T15:50:34.288Z,100672.88
2023-02-22T15:53:04.450Z,100671.63
2023-02-22T15:55:47.421Z,100681.47
2023-02-22T15:58:28.815Z,100683.22
2023-02-22T16:01:03.122Z,100707.44
2023-02-22T16:03:45.549Z,100669.28
2023-02-22T16:06:26.779Z,100658.09
2023-02-22T16:08:55.879Z,100707.91
2023-02-22T16:11:34.439Z,100677.34
2023-02-22T16:14:26.198Z,100729.25
2023-02-22T16:17:11.674Z,100695.28
2023-02-22T16:19:45.143Z,100708.44
2023-02-22T16:22:46.649Z,100718.75
2023-02-22T16:25:19.264Z,100729.72
2023-02-22T16:27:51.298Z,100735.44
2023-02-22T16:30:28.874Z,100749.44
2023-02-22T16:32:57.526Z,100748.44
2023-02-22T16:35:29.039Z,100735.09
2023-02-22T16:38:17.660Z,100714.53
2023-02-22T16:40:53.969Z,100719.44
2023-02-22T16:43:28.206Z,100768.88
2023-02-22T16:45:55.106Z,100729.34
2023-02-22T16:48:27.608Z,100772.81
2023-02-22T16:50:56.997Z,100764.50
2023-02-22T16:53:26.320Z,100749.91
2023-02-22T16:55:58.564Z,100785.47
2023-02-22T16:58:29.616Z,100746.75
2023-02-22T17:00:57.675Z,100804.00
2023-02-22T17:03:25.697Z,100813.34
2023-02-22T17:05:52.915Z,100782.34
2023-02-22T17:08:19.738Z,100778.97
2023-02-22T17:10:51.892Z,100788.06
2023-02-22T17:13:26.920Z,100831.28
2023-02-22T17:15:56.867Z,100764.72
2023-02-22T17:18:25.229Z,100790.78
2023-02-22T17:20:53.255Z,100821.22
2023-02-22T17:23:20.693Z,100853.94
2023-02-22T17:25:59.376Z,100861.19
2023-02-22T17:28:27.145Z,100827.88
2023-02-22T17:30:55.545Z,100873.06
2023-02-22T17:33:27.026Z,100851.63
2023-02-22T17:35:56.057Z,100888.44
2023-02-22T17:38:23.040Z,100853.19
2023-02-22T17:40:54.883Z,100900.41
2023-02-22T17:43:22.699Z,100907.59
2023-02-22T17:45:50.206Z,100875.47
2023-02-22T17:48:18.802Z,100885.19
2023-02-22T17:50:47.506Z,100852.38
2023-02-22T17:53:14.463Z,100887.91
2023-02-22T17:55:42.583Z,100901.53
2023-02-22T17:58:14.838Z,100864.91
2023-02-22T18:00:48.059Z,100938.81
2023-02-22T18:03:16.500Z,100943.44
2023-02-22T18:05:48.795Z,100923.97
2023-02-22T18:08:15.916Z,100955.66
2023-02-22T18:10:43.902Z,100944.25
2023-02-22T18:13:14.348Z,100915.38
2023-02-22T18:15:41.179Z,100892.16
2023-02-22T18:18:07.963Z,100944.78
2023-02-22T18:20:40.416Z,100918.47
2023-02-22T18:23:08.892Z,100980.34
2023-02-22T18:25:37.116Z,100967.53
2023-02-22T18:28:06.392Z,100998.66
2023-02-22T18:30:37.961Z,100986.56
2023-02-22T18:33:04.845Z,100941.09
2023-02-22T18:35:31.883Z,101014.19
2023-02-22T18:37:58.567Z,100955.59
2023-02-22T18:40:25.274Z,100982.38
2023-02-22T18:42:51.989Z,100968.03
2023-02-22T18:45:19.408Z,100998.66
2023-02-22T18:47:46.101Z,101007.34
2023-02-22T18:50:23.575Z,101042.09
2023-02-22T18:52:50.397Z,101007.78
2023-02-22T18:55:19.261Z,101028.28
2023-02-22T18:57:47.761Z,101019.75
2023-02-22T19:00:17.686Z,101001.03
2023-02-22T19:02:49.486Z,101052.84
2023-02-22T19:05:18.897Z,101002.94
2023-02-22T19:10:26.316Z,101009.06
2023-02-22T19:12:53.110Z,101024.50
2023-02-22T19:15:19.910Z,101016.91
2023-02-22T19:17:46.828Z,101010.88
2023-02-22T19:20:13.592Z,101065.91
2023-02-22T19:22:40.356Z,101050.53
2023-02-22T19:25:07.321Z,101016.97
2023-02-22T19:27:34.257Z,101061.84
2023-02-22T19:30:00.996Z,101040.50
2023-02-22T19:32:27.763Z,101022.44
2023-02-22T19:35:02.360Z,101088.78
2023-02-22T19:37:35.681Z,101021.66
2023-02-22T19:40:03.744Z,101089.66
2023-02-22T19:42:30.431Z,101027.78
2023-02-22T19:44:57.089Z,101071.66
2023-02-22T19:47:23.796Z,101035.75
2023-02-22T19:49:50.817Z,101085.59
2023-02-22T19:52:17.592Z,101067.59
2023-02-22T19:54:45.189Z,101072.81
2023-02-22T19:57:11.989Z,101069.34
2023-02-22T19:59:39.314Z,101072.78
2023-02-22T20:02:07.770Z,101144.22
2023-02-22T20:04:37.443Z,101131.31
2023-02-22T20:07:04.270Z,101059.91
2023-02-22T20:09:39.719Z,101130.41
2023-02-22T20:12:07.166Z,101137.34
2023-02-22T20:14:34.336Z,101118.59
2023-02-22T20:17:01.351Z,101132.38
2023-02-22T20:19:28.590Z,101122.09
2023-02-22T20:21:56.158Z,101128.09
2023-02-22T20:24:24.364Z,101148.78
2023-02-22T20:26:55.739Z,101100.59
2023-02-22T20:29:29.595Z,101123.88
2023-02-22T20:32:01.564Z,101141.16
2023-02-22T20:34:33.400Z,101134.22
2023-02-22T20:37:01.408Z,101115.25
2023-02-22T20:39:28.161Z,101176.59
2023-02-22T20:41:54.910Z,101148.19
2023-02-22T20:44:22.073Z,101123.25
2023-02-22T20:46:49.133Z,101154.34
2023-02-22T20:49:19.074Z,101196.47
2023-02-22T20:51:46.921Z,101148.22
2023-02-22T20:54:14.287Z,101168.03
2023-02-22T20:56:43.546Z,101220.63
2023-02-22T20:59:15.817Z,101226.63
2023-02-22T21:01:42.932Z,101219.91
2023-02-22T21:04:10.718Z,101243.19
2023-02-22T21:06:39.087Z,101233.66
2023-02-22T21:09:08.888Z,101171.59
2023-02-22T21:11:35.863Z,101200.91
2023-02-22T21:14:03.252Z,101238.00
2023-02-22T21:16:33.184Z,101169.84
2023-02-22T21:19:02.842Z,101240.53
2023-02-22T21:21:29.973Z,101228.59
2023-02-22T21:23:57.964Z,101244.09
2023-02-22T21:26:27.560Z,101241.56
2023-02-22T21:28:57.450Z,101264.81
2023-02-22T21:31:25.650Z,101206.16
2023-02-22T21:33:54.314Z,101194.03
2023-02-22T21:36:25.373Z,101225.16
2023-02-22T21:38:55.720Z,101238.09
2023-02-22T21:41:27.647Z,101251.03
2023-02-22T21:43:56.495Z,101240.72
2023-02-22T21:46:24.416Z,101262.28
2023-02-22T21:48:51.278Z,101188.16
2023-02-22T21:51:23.765Z,101257.97
2023-02-22T21:53:53.446Z,101240.78
2023-02-22T21:56:27.553Z,101282.16
2023-02-22T21:59:00.232Z,101246.81
2023-02-22T22:01:28.586Z,101271.03
2023-02-22T22:03:56.881Z,101253.81
2023-02-22T22:06:23.574Z,101249.44
2023-02-22T22:08:50.556Z,101281.34
2023-02-22T22:11:18.077Z,101235.66
2023-02-22T22:13:45.407Z,101222.75
2023-02-22T22:16:16.903Z,101285.66
2023-02-22T22:18:45.363Z,101304.69
2023-02-22T22:21:17.866Z,101285.66
2023-02-22T22:23:47.239Z,101284.84
2023-02-22T22:26:16.606Z,101311.53
2023-02-22T22:28:46.245Z,101302.09
2023-02-22T22:31:15.074Z,101298.66
2023-02-22T22:33:44.101Z,101283.09
2023-02-22T22:36:13.844Z,101330.59
2023-02-22T22:38:40.644Z,101336.63
2023-02-22T22:41:10.506Z,101339.25
2023-02-22T22:43:37.602Z,101347.91
2023-02-22T22:46:06.481Z,101276.31
2023-02-22T22:48:36.197Z,101334.09
2023-02-22T22:51:09.920Z,101347.03
2023-02-22T22:53:39.866Z,101297.00
2023-02-22T22:56:14.194Z,101344.50
2023-02-22T22:58:44.116Z,101325.53
2023-02-22T23:01:17.915Z,101356.63
2023-02-22T23:03:55.319Z,101322.97
2023-02-22T23:06:25.066Z,101333.31
2023-02-22T23:08:58.456Z,101330.72
2023-02-22T23:11:25.128Z,101337.63
2023-02-22T23:13:51.980Z,101268.56
2023-02-22T23:16:19.916Z,101357.47
2023-02-22T23:18:46.592Z,101323.81
2023-02-22T23:21:13.298Z,101314.31
2023-02-22T23:23:41.224Z,101314.31
2023-02-22T23:26:18.061Z,101330.72
2023-02-22T23:28:47.539Z,101329.00
2023-02-22T23:31:18.099Z,101375.63
2023-02-22T23:33:50.322Z,101346.25
2023-02-22T23:36:18.696Z,101367.88
2023-02-22T23:38:45.843Z,101372.16
2023-02-22T23:41:16.608Z,101338.47
2023-02-22T23:43:44.907Z,101348.84
2023-02-22T23:46:20.403Z,101332.44
2023-02-22T23:48:52.499Z,101372.16
2023-02-22T23:51:25.523Z,101380.81
2023-02-22T23:53:55.862Z,101387.72
2023-02-22T23:56:27.954Z,101354.03
2023-02-22T23:58:57.543Z,101384.28
